createdAt,value
2022-07-25T00:01:53.032Z,51.18
2022-07-25T00:04:20.534Z,51.10
2022-07-25T00:06:49.669Z,51.35
2022-07-25T00:09:17.134Z,51.89
2022-07-25T00:11:44.596Z,51.04
2022-07-25T00:14:12.048Z,51.34
2022-07-25T00:16:40.962Z,51.35
2022-07-25T00:19:08.435Z,51.98
2022-07-25T00:21:35.868Z,52.10
2022-07-25T00:24:03.801Z,52.46
2022-07-25T00:26:33.527Z,52.51
2022-07-25T00:29:04.162Z,51.90
2022-07-25T00:31:31.652Z,51.86
2022-07-25T00:34:00.456Z,51.70
2022-07-25T00:36:27.980Z,51.68
2022-07-25T00:38:55.444Z,51.72
2022-07-25T00:41:22.942Z,51.30
2022-07-25T00:43:50.385Z,50.65
2022-07-25T00:46:19.005Z,50.59
2022-07-25T00:48:46.755Z,51.31
2022-07-25T00:51:15.569Z,50.82
2022-07-25T00:53:43.041Z,51.72
2022-07-25T00:56:10.490Z,50.87
2022-07-25T00:58:38.239Z,50.99
2022-07-25T01:01:05.977Z,51.40
2022-07-25T01:03:33.483Z,51.21
2022-07-25T01:06:00.942Z,51.04
2022-07-25T01:08:29.713Z,51.26
2022-07-25T01:10:57.163Z,51.10
2022-07-25T01:13:24.614Z,51.06
2022-07-25T01:15:52.091Z,51.27
2022-07-25T01:18:19.559Z,50.90
2022-07-25T01:20:48.526Z,51.08
2022-07-25T01:23:15.982Z,50.77
2022-07-25T01:25:43.548Z,50.71
2022-07-25T01:28:11.008Z,51.85
2022-07-25T01:30:38.523Z,50.98
2022-07-25T01:33:07.007Z,51.33
2022-07-25T01:35:36.224Z,51.05
2022-07-25T01:38:06.739Z,51.11
2022-07-25T01:40:34.189Z,51.22
2022-07-25T01:43:01.627Z,50.64
2022-07-25T01:45:29.098Z,50.39
2022-07-25T01:47:56.575Z,50.44
2022-07-25T01:50:24.197Z,50.57
2022-07-25T01:52:51.646Z,50.25
2022-07-25T01:55:20.398Z,50.62
2022-07-25T01:57:49.729Z,50.45
2022-07-25T02:00:17.735Z,50.92
2022-07-25T02:02:45.368Z,50.00
2022-07-25T02:05:13.654Z,50.04
2022-07-25T02:07:41.106Z,50.44
2022-07-25T02:10:09.131Z,49.89
2022-07-25T02:12:37.860Z,49.83
2022-07-25T02:15:06.096Z,50.29
2022-07-25T02:17:33.574Z,50.66
2022-07-25T02:20:01.014Z,49.71
2022-07-25T02:22:28.452Z,49.69
2022-07-25T02:24:55.902Z,49.81
2022-07-25T02:27:23.356Z,50.29
2022-07-25T02:29:52.083Z,49.97
2022-07-25T02:32:19.850Z,49.75
2022-07-25T02:34:47.294Z,49.64
2022-07-25T02:37:14.831Z,49.54
2022-07-25T02:39:42.272Z,48.74
2022-07-25T02:42:09.737Z,48.84
2022-07-25T02:44:37.181Z,48.82
2022-07-25T02:47:05.970Z,49.27
2022-07-25T02:49:33.448Z,48.89
2022-07-25T02:52:00.895Z,48.67
2022-07-25T02:54:28.394Z,48.61
2022-07-25T02:56:56.207Z,48.71
2022-07-25T02:59:23.649Z,48.55
2022-07-25T03:01:51.208Z,49.31
2022-07-25T03:04:20.059Z,48.35
2022-07-25T03:06:47.565Z,48.18
2022-07-25T03:09:14.999Z,48.33
2022-07-25T03:11:42.470Z,48.37
2022-07-25T03:14:10.251Z,48.49
2022-07-25T03:16:37.914Z,48.13
2022-07-25T03:19:10.155Z,48.37
2022-07-25T03:21:39.194Z,48.15
2022-07-25T03:24:07.489Z,48.21
2022-07-25T03:26:35.149Z,48.18
2022-07-25T03:29:02.604Z,47.98
2022-07-25T03:31:30.155Z,48.08
2022-07-25T03:33:57.701Z,47.94
2022-07-25T03:36:25.160Z,48.04
2022-07-25T03:38:55.815Z,48.10
2022-07-25T03:41:23.280Z,48.13
2022-07-25T03:43:50.745Z,48.24
2022-07-25T03:46:18.229Z,48.22
2022-07-25T03:48:45.782Z,48.31
2022-07-25T03:51:13.272Z,47.96
2022-07-25T03:53:54.739Z,47.85
2022-07-25T03:56:23.581Z,47.88
2022-07-25T03:58:51.483Z,47.79
2022-07-25T04:01:18.964Z,47.86
2022-07-25T04:03:46.812Z,47.89
2022-07-25T04:06:14.247Z,47.75
2022-07-25T04:08:41.687Z,47.62
2022-07-25T04:11:09.142Z,47.81
2022-07-25T04:13:37.929Z,47.94
2022-07-25T04:16:07.067Z,47.85
2022-07-25T04:18:35.919Z,47.69
2022-07-25T04:21:04.077Z,47.71
2022-07-25T04:23:31.640Z,47.76
2022-07-25T04:25:59.083Z,47.70
2022-07-25T04:28:26.551Z,47.92
2022-07-25T04:30:55.323Z,48.00
2022-07-25T04:33:22.749Z,47.47
2022-07-25T04:35:50.746Z,47.67
2022-07-25T04:38:18.258Z,47.33
2022-07-25T04:40:45.736Z,47.49
2022-07-25T04:43:13.194Z,47.23
2022-07-25T04:45:40.771Z,47.14
2022-07-25T04:48:09.579Z,47.32
2022-07-25T04:50:37.025Z,47.31
2022-07-25T04:53:04.501Z,47.22
2022-07-25T04:55:33.233Z,47.26
2022-07-25T04:58:00.676Z,47.19
2022-07-25T05:00:28.224Z,47.05
2022-07-25T05:02:55.710Z,47.43
2022-07-25T05:05:24.456Z,47.23
2022-07-25T05:07:51.944Z,47.10
2022-07-25T05:10:19.388Z,46.90
2022-07-25T05:12:46.884Z,46.78
2022-07-25T05:15:14.467Z,46.88
2022-07-25T05:17:41.930Z,46.80
2022-07-25T05:20:10.623Z,46.46
2022-07-25T05:22:39.356Z,47.51
2022-07-25T05:25:08.338Z,47.66
2022-07-25T05:27:35.778Z,47.62
2022-07-25T05:30:03.266Z,47.34
2022-07-25T05:32:31.105Z,47.11
2022-07-25T05:34:58.557Z,47.13
2022-07-25T05:37:26.078Z,46.85
2022-07-25T05:39:54.904Z,46.80
2022-07-25T05:42:22.390Z,46.50
2022-07-25T05:44:49.833Z,46.61
2022-07-25T05:47:17.260Z,46.66
2022-07-25T05:49:44.735Z,46.35
2022-07-25T05:52:13.278Z,45.39
2022-07-25T05:54:41.213Z,45.33
2022-07-25T05:57:09.960Z,45.35
2022-07-25T05:59:37.566Z,45.77
2022-07-25T06:02:05.142Z,45.92
2022-07-25T06:04:32.766Z,45.83
2022-07-25T06:07:00.225Z,45.51
2022-07-25T06:09:27.684Z,45.80
2022-07-25T06:12:00.359Z,45.66
2022-07-25T06:14:29.731Z,45.21
2022-07-25T06:16:57.197Z,45.51
2022-07-25T06:19:24.667Z,44.76
2022-07-25T06:21:53.064Z,44.75
2022-07-25T06:24:20.527Z,44.76
2022-07-25T06:26:47.962Z,44.87
2022-07-25T06:29:15.406Z,45.08
2022-07-25T06:31:47.066Z,44.86
2022-07-25T06:34:14.955Z,44.67
2022-07-25T06:36:42.386Z,44.66
2022-07-25T06:39:09.843Z,44.62
2022-07-25T06:41:37.773Z,44.42
2022-07-25T06:44:05.992Z,44.41
2022-07-25T06:46:33.650Z,44.53
2022-07-25T06:49:03.001Z,45.24
2022-07-25T06:51:30.497Z,44.36
2022-07-25T06:53:57.984Z,43.30
2022-07-25T06:56:25.815Z,43.02
2022-07-25T06:58:54.667Z,43.42
2022-07-25T07:01:22.359Z,43.33
2022-07-25T07:03:49.951Z,43.15
2022-07-25T07:06:18.813Z,43.26
2022-07-25T07:08:46.300Z,43.12
2022-07-25T07:11:15.276Z,42.97
2022-07-25T07:13:42.743Z,43.44
2022-07-25T07:16:10.669Z,43.40
2022-07-25T07:18:38.640Z,43.09
2022-07-25T07:21:06.720Z,43.04
2022-07-25T07:23:36.990Z,43.41
2022-07-25T07:26:07.574Z,43.29
2022-07-25T07:28:35.618Z,43.10
2022-07-25T07:31:18.697Z,43.15
2022-07-25T07:33:46.794Z,43.12
2022-07-25T07:36:14.427Z,43.36
2022-07-25T07:38:44.480Z,43.33
2022-07-25T07:41:12.686Z,43.22
2022-07-25T07:43:40.144Z,43.42
2022-07-25T07:46:07.682Z,43.47
2022-07-25T07:48:35.252Z,43.65
2022-07-25T07:51:02.913Z,43.42
2022-07-25T07:53:44.522Z,43.79
2022-07-25T07:56:13.242Z,43.57
2022-07-25T07:58:40.743Z,43.75
2022-07-25T08:01:08.203Z,43.69
2022-07-25T08:03:36.057Z,43.86
2022-07-25T08:06:03.578Z,43.63
2022-07-25T08:08:31.682Z,43.47
2022-07-25T08:10:59.787Z,43.32
2022-07-25T08:13:30.304Z,43.47
2022-07-25T08:15:59.312Z,43.41
2022-07-25T08:18:27.145Z,43.78
2022-07-25T08:20:54.634Z,43.69
2022-07-25T08:23:22.338Z,43.71
2022-07-25T08:25:49.917Z,43.61
2022-07-25T08:28:17.389Z,43.44
2022-07-25T08:30:46.322Z,43.63
2022-07-25T08:33:15.916Z,43.66
2022-07-25T08:35:47.021Z,43.75
2022-07-25T08:38:14.538Z,43.48
2022-07-25T08:40:41.986Z,43.48
2022-07-25T08:43:11.983Z,43.71
2022-07-25T08:45:39.428Z,43.82
2022-07-25T08:48:08.203Z,43.84
2022-07-25T08:50:35.645Z,43.39
2022-07-25T08:53:31.454Z,43.50
2022-07-25T08:55:50.618Z,43.56
2022-07-25T08:58:18.459Z,43.32
2022-07-25T09:00:45.972Z,43.56
2022-07-25T09:03:14.758Z,43.33
2022-07-25T09:05:43.754Z,43.75
2022-07-25T09:08:11.978Z,43.76
2022-07-25T09:10:39.875Z,43.91
2022-07-25T09:13:10.993Z,43.83
2022-07-25T09:15:39.799Z,43.90
2022-07-25T09:18:10.842Z,44.29
2022-07-25T09:20:41.113Z,44.42
2022-07-25T09:23:08.575Z,44.17
2022-07-25T09:25:36.141Z,44.17
2022-07-25T09:28:16.836Z,44.10
2022-07-25T09:30:54.770Z,44.19
2022-07-25T09:33:22.530Z,43.88
2022-07-25T09:35:51.384Z,43.86
2022-07-25T09:38:18.996Z,43.50
2022-07-25T09:40:55.070Z,43.72
2022-07-25T09:43:23.420Z,43.86
2022-07-25T09:45:51.608Z,43.61
2022-07-25T09:48:19.455Z,43.19
2022-07-25T09:50:46.894Z,43.08
2022-07-25T09:53:15.617Z,43.28
2022-07-25T09:55:43.287Z,42.98
2022-07-25T09:58:10.761Z,42.90
2022-07-25T10:00:38.215Z,43.08
2022-07-25T10:03:15.498Z,42.63
2022-07-25T10:06:01.092Z,42.42
2022-07-25T10:08:30.051Z,42.70
2022-07-25T10:10:58.223Z,42.52
2022-07-25T10:13:34.212Z,42.04
2022-07-25T10:16:01.944Z,42.34
2022-07-25T10:18:30.481Z,42.32
2022-07-25T10:21:24.426Z,42.00
2022-07-25T10:24:04.873Z,42.11
2022-07-25T10:26:32.845Z,42.29
2022-07-25T10:29:01.653Z,42.34
2022-07-25T10:31:35.689Z,42.03
2022-07-25T10:34:05.542Z,42.43
2022-07-25T10:36:42.977Z,42.36
2022-07-25T10:39:13.260Z,42.39
2022-07-25T10:41:40.851Z,42.24
2022-07-25T10:44:12.684Z,42.27
2022-07-25T10:46:40.231Z,41.57
2022-07-25T10:49:08.906Z,41.38
2022-07-25T10:51:41.676Z,41.74
2022-07-25T10:54:17.317Z,42.18
2022-07-25T10:56:55.377Z,41.99
2022-07-25T10:59:33.415Z,41.57
2022-07-25T11:02:01.144Z,41.76
2022-07-25T11:04:28.824Z,41.73
2022-07-25T11:06:56.262Z,41.23
2022-07-25T11:09:27.586Z,41.63
2022-07-25T11:11:56.372Z,41.47
2022-07-25T11:14:24.852Z,41.47
2022-07-25T11:16:53.146Z,41.54
2022-07-25T11:19:21.917Z,41.52
2022-07-25T11:21:50.481Z,41.55
2022-07-25T11:24:18.410Z,41.51
2022-07-25T11:26:48.553Z,41.44
2022-07-25T11:29:20.205Z,41.10
2022-07-25T11:31:55.255Z,41.09
2022-07-25T11:34:24.097Z,41.30
2022-07-25T11:36:52.060Z,41.17
2022-07-25T11:39:19.773Z,41.23
2022-07-25T11:41:48.572Z,41.63
2022-07-25T11:44:16.070Z,41.90
2022-07-25T11:46:44.824Z,41.67
2022-07-25T11:49:12.894Z,41.38
2022-07-25T11:51:41.731Z,41.40
2022-07-25T11:54:09.802Z,41.50
2022-07-25T11:56:42.820Z,41.46
2022-07-25T11:59:12.407Z,41.49
2022-07-25T12:01:41.231Z,41.67
2022-07-25T12:04:10.334Z,41.42
2022-07-25T12:06:37.789Z,41.43
2022-07-25T12:09:18.580Z,41.46
2022-07-25T12:11:47.124Z,41.28
2022-07-25T12:14:15.894Z,41.15
2022-07-25T12:16:43.421Z,41.55
2022-07-25T12:19:18.497Z,41.25
2022-07-25T12:21:45.940Z,41.50
2022-07-25T12:24:13.549Z,41.21
2022-07-25T12:26:40.977Z,40.81
2022-07-25T12:29:08.827Z,41.00
2022-07-25T12:31:37.897Z,40.70
2022-07-25T12:34:05.340Z,40.80
2022-07-25T12:36:34.312Z,40.54
2022-07-25T12:39:01.863Z,40.56
2022-07-25T12:41:29.313Z,40.27
2022-07-25T12:43:58.885Z,40.55
2022-07-25T12:46:26.375Z,40.44
2022-07-25T12:48:55.183Z,40.31
2022-07-25T12:51:22.718Z,40.29
2022-07-25T12:53:50.151Z,40.21
2022-07-25T12:56:17.759Z,40.56
2022-07-25T12:58:45.210Z,40.46
2022-07-25T13:01:13.685Z,40.13
2022-07-25T13:03:41.527Z,39.94
2022-07-25T13:06:10.439Z,39.97
2022-07-25T13:08:37.931Z,40.14
2022-07-25T13:11:05.398Z,40.12
2022-07-25T13:13:32.837Z,40.11
2022-07-25T13:16:00.324Z,39.83
2022-07-25T13:18:27.772Z,39.74
2022-07-25T13:20:55.242Z,39.89
2022-07-25T13:23:23.981Z,39.80
2022-07-25T13:25:51.416Z,39.82
2022-07-25T13:28:18.865Z,39.63
2022-07-25T13:30:46.310Z,39.66
2022-07-25T13:33:14.881Z,39.77
2022-07-25T13:35:42.324Z,39.32
2022-07-25T13:38:10.359Z,39.23
2022-07-25T13:40:41.855Z,39.80
2022-07-25T13:43:09.329Z,39.38
2022-07-25T13:45:36.871Z,39.42
2022-07-25T13:48:29.609Z,39.19
2022-07-25T13:50:52.120Z,39.40
2022-07-25T13:53:19.680Z,39.10
2022-07-25T13:55:48.426Z,38.88
2022-07-25T13:58:15.872Z,39.00
2022-07-25T14:00:43.493Z,38.82
2022-07-25T14:03:11.094Z,39.02
2022-07-25T14:05:39.446Z,38.62
2022-07-25T14:08:07.512Z,38.61
2022-07-25T14:10:35.178Z,38.82
2022-07-25T14:13:04.014Z,38.64
2022-07-25T14:15:31.483Z,38.77
2022-07-25T14:17:58.936Z,38.79
2022-07-25T14:20:26.528Z,38.94
2022-07-25T14:22:53.987Z,38.66
2022-07-25T14:25:21.468Z,38.79
2022-07-25T14:27:49.011Z,38.99
2022-07-25T14:30:17.849Z,38.42
2022-07-25T14:32:45.303Z,38.45
2022-07-25T14:35:13.175Z,38.50
2022-07-25T14:37:40.670Z,38.35
2022-07-25T14:40:10.939Z,38.37
2022-07-25T14:42:40.155Z,38.15
2022-07-25T14:45:08.220Z,38.63
2022-07-25T14:47:37.042Z,38.28
2022-07-25T14:50:04.769Z,38.39
2022-07-25T14:52:32.226Z,38.49
2022-07-25T14:54:59.723Z,38.55
2022-07-25T14:57:27.163Z,38.42
2022-07-25T14:59:54.609Z,38.24
2022-07-25T15:02:22.215Z,38.22
2022-07-25T15:04:51.021Z,38.21
2022-07-25T15:07:18.542Z,38.08
2022-07-25T15:09:46.055Z,38.33
2022-07-25T15:12:16.627Z,37.99
2022-07-25T15:14:44.839Z,38.35
2022-07-25T15:17:12.274Z,38.21
2022-07-25T15:19:39.746Z,38.01
2022-07-25T15:22:08.497Z,37.88
2022-07-25T15:25:06.414Z,38.08
2022-07-25T15:27:23.382Z,38.49
2022-07-25T15:29:51.847Z,37.59
2022-07-25T15:32:20.377Z,37.82
2022-07-25T15:34:47.853Z,37.82
2022-07-25T15:37:16.621Z,38.18
2022-07-25T15:39:44.988Z,38.29
2022-07-25T15:42:12.450Z,38.35
2022-07-25T15:44:39.919Z,38.53
2022-07-25T15:47:07.582Z,38.42
2022-07-25T15:49:35.135Z,38.23
2022-07-25T15:52:02.569Z,38.37
2022-07-25T15:54:31.355Z,38.23
2022-07-25T15:56:58.845Z,38.21
2022-07-25T15:59:26.375Z,38.35
2022-07-25T16:01:53.885Z,38.29
2022-07-25T16:04:21.413Z,38.31
2022-07-25T16:06:49.742Z,38.33
2022-07-25T16:09:18.142Z,38.42
2022-07-25T16:11:46.972Z,37.79
2022-07-25T16:14:14.472Z,38.42
2022-07-25T16:16:44.053Z,38.05
2022-07-25T16:19:11.557Z,38.26
2022-07-25T16:21:39.872Z,38.04
2022-07-25T16:24:09.318Z,38.21
2022-07-25T16:26:36.788Z,38.12
2022-07-25T16:29:05.770Z,38.18
2022-07-25T16:31:33.323Z,38.05
2022-07-25T16:34:00.831Z,37.92
2022-07-25T16:36:29.133Z,37.96
2022-07-25T16:38:56.578Z,37.85
2022-07-25T16:41:24.021Z,37.93
2022-07-25T16:43:51.467Z,37.92
2022-07-25T16:46:21.993Z,38.13
2022-07-25T16:48:52.066Z,38.33
2022-07-25T16:51:19.622Z,38.22
2022-07-25T16:53:47.308Z,37.67
2022-07-25T16:56:14.779Z,37.93
2022-07-25T16:58:42.705Z,38.37
2022-07-25T17:01:10.155Z,38.31
2022-07-25T17:03:38.874Z,38.11
2022-07-25T17:06:06.797Z,37.84
2022-07-25T17:08:34.309Z,38.26
2022-07-25T17:11:02.123Z,38.34
2022-07-25T17:13:29.571Z,38.14
2022-07-25T17:15:57.147Z,37.73
2022-07-25T17:18:24.657Z,38.03
2022-07-25T17:20:54.603Z,38.32
2022-07-25T17:23:22.081Z,38.50
2022-07-25T17:25:50.843Z,38.95
2022-07-25T17:28:18.714Z,39.80
2022-07-25T17:30:46.519Z,40.97
2022-07-25T17:33:14.050Z,41.82
2022-07-25T17:35:41.514Z,43.29
2022-07-25T17:38:11.563Z,43.73
2022-07-25T17:40:41.894Z,43.98
2022-07-25T17:43:09.326Z,43.61
2022-07-25T17:45:36.783Z,43.78
2022-07-25T17:48:04.431Z,43.82
2022-07-25T17:50:31.857Z,43.98
2022-07-25T17:52:59.967Z,44.12
2022-07-25T17:55:29.040Z,44.20
2022-07-25T17:57:56.671Z,44.41
2022-07-25T18:00:24.225Z,44.69
2022-07-25T18:02:51.774Z,44.65
2022-07-25T18:05:19.347Z,44.67
2022-07-25T18:07:49.512Z,44.92
2022-07-25T18:10:17.491Z,45.53
2022-07-25T18:15:14.803Z,45.93
2022-07-25T18:17:42.717Z,45.41
2022-07-25T18:20:11.260Z,45.64
2022-07-25T18:22:40.943Z,46.17
2022-07-25T18:25:09.410Z,45.99
2022-07-25T18:27:36.873Z,46.35
2022-07-25T18:30:07.904Z,45.87
2022-07-25T18:32:35.367Z,46.44
2022-07-25T18:35:02.937Z,46.40
2022-07-25T18:37:30.381Z,46.37
2022-07-25T18:39:57.988Z,46.17
2022-07-25T18:42:29.706Z,46.39
2022-07-25T18:44:57.650Z,46.93
2022-07-25T18:47:32.118Z,47.06
2022-07-25T18:50:00.031Z,46.63
2022-07-25T18:52:29.007Z,47.02
2022-07-25T18:54:56.495Z,46.62
2022-07-25T18:57:24.054Z,47.31
2022-07-25T18:59:51.509Z,47.72
2022-07-25T19:02:18.955Z,47.30
2022-07-25T19:04:47.766Z,47.94
2022-07-25T19:07:15.333Z,47.46
2022-07-25T19:09:42.831Z,47.16
2022-07-25T19:12:11.974Z,47.77
2022-07-25T19:14:39.416Z,48.11
2022-07-25T19:17:06.900Z,48.12
2022-07-25T19:19:34.436Z,48.34
2022-07-25T19:22:03.175Z,48.13
2022-07-25T19:24:31.330Z,48.55
2022-07-25T19:26:58.933Z,48.64
2022-07-25T19:29:26.685Z,48.67
2022-07-25T19:31:54.202Z,48.83
2022-07-25T19:34:21.755Z,48.92
2022-07-25T19:36:49.208Z,49.08
2022-07-25T19:39:18.352Z,48.94
2022-07-25T19:41:47.198Z,48.92
2022-07-25T19:44:14.926Z,48.92
2022-07-25T19:46:42.436Z,49.04
2022-07-25T19:49:10.094Z,48.96
2022-07-25T19:51:37.593Z,49.22
2022-07-25T19:54:08.010Z,49.07
2022-07-25T19:56:37.002Z,49.47
2022-07-25T19:59:04.490Z,49.25
2022-07-25T20:01:34.156Z,49.33
2022-07-25T20:04:01.907Z,49.54
2022-07-25T20:06:29.349Z,49.23
2022-07-25T20:08:56.870Z,49.71
2022-07-25T20:11:24.354Z,49.50
2022-07-25T20:13:53.120Z,49.54
2022-07-25T20:16:20.648Z,48.96
2022-07-25T20:18:48.132Z,49.96
2022-07-25T20:21:17.867Z,49.31
2022-07-25T20:23:45.333Z,49.54
2022-07-25T20:26:12.804Z,49.53
2022-07-25T20:28:40.270Z,50.08
2022-07-25T20:31:09.147Z,50.12
2022-07-25T20:33:36.693Z,49.99
2022-07-25T20:36:04.409Z,50.27
2022-07-25T20:38:32.287Z,50.46
2022-07-25T20:40:59.750Z,49.99
2022-07-25T20:43:28.475Z,50.31
2022-07-25T20:45:56.090Z,50.61
2022-07-25T20:48:24.985Z,50.86
2022-07-25T20:50:52.546Z,50.79
2022-07-25T20:53:20.041Z,50.73
2022-07-25T20:55:47.545Z,51.01
2022-07-25T20:58:14.989Z,51.01
2022-07-25T21:00:42.442Z,50.79
2022-07-25T21:03:09.897Z,51.24
2022-07-25T21:05:39.387Z,51.05
2022-07-25T21:08:07.653Z,51.37
2022-07-25T21:10:35.132Z,51.20
2022-07-25T21:13:02.608Z,51.33
2022-07-25T21:15:30.757Z,51.73
2022-07-25T21:17:58.214Z,51.31
2022-07-25T21:20:25.644Z,51.62
2022-07-25T21:22:56.183Z,51.52
2022-07-25T21:25:23.659Z,51.64
2022-07-25T21:27:51.217Z,51.66
2022-07-25T21:30:18.725Z,51.93
2022-07-25T21:32:46.181Z,51.99
2022-07-25T21:35:13.655Z,52.30
2022-07-25T21:37:41.213Z,52.09
2022-07-25T21:40:11.049Z,52.36
2022-07-25T21:42:38.501Z,52.31
2022-07-25T21:45:07.110Z,52.37
2022-07-25T21:47:34.562Z,51.92
2022-07-25T21:50:24.940Z,51.88
2022-07-25T21:52:52.923Z,52.07
2022-07-25T21:55:21.854Z,52.41
2022-07-25T21:57:49.475Z,51.80
2022-07-25T22:00:17.170Z,52.07
2022-07-25T22:02:44.807Z,52.04
2022-07-25T22:05:12.237Z,51.73
2022-07-25T22:07:39.707Z,51.66
2022-07-25T22:10:08.069Z,51.52
2022-07-25T22:12:36.840Z,51.61
2022-07-25T22:15:04.810Z,51.57
2022-07-25T22:17:48.407Z,52.15
2022-07-25T22:20:17.259Z,51.95
2022-07-25T22:22:44.693Z,51.97
2022-07-25T22:25:12.157Z,52.06
2022-07-25T22:27:40.913Z,51.90
2022-07-25T22:30:12.324Z,52.13
2022-07-25T22:32:43.772Z,52.26
2022-07-25T22:35:11.217Z,52.45
2022-07-25T22:37:38.663Z,53.28
2022-07-25T22:40:07.246Z,53.65
2022-07-25T22:42:34.692Z,53.75
2022-07-25T22:45:03.452Z,54.33
2022-07-25T22:47:30.914Z,53.60
2022-07-25T22:49:58.409Z,53.93
2022-07-25T22:52:25.865Z,53.85
2022-07-25T22:54:53.310Z,54.32
2022-07-25T22:57:20.780Z,53.82
2022-07-25T22:59:49.207Z,54.86
2022-07-25T23:02:17.994Z,53.84
2022-07-25T23:04:45.458Z,53.91
2022-07-25T23:07:13.160Z,53.56
2022-07-25T23:09:40.635Z,54.05
2022-07-25T23:12:08.606Z,54.14
2022-07-25T23:14:36.080Z,53.83
2022-07-25T23:17:19.934Z,54.24
2022-07-25T23:19:50.160Z,53.80
2022-07-25T23:22:17.676Z,53.65
2022-07-25T23:24:45.161Z,53.95
2022-07-25T23:27:12.648Z,53.87
2022-07-25T23:29:40.096Z,53.25
2022-07-25T23:32:07.987Z,53.03
2022-07-25T23:34:35.475Z,53.01
2022-07-25T23:37:04.448Z,52.86
2022-07-25T23:39:32.430Z,53.04
2022-07-25T23:41:59.949Z,53.07
2022-07-25T23:44:27.455Z,52.79
2022-07-25T23:46:59.675Z,53.07
2022-07-25T23:49:29.092Z,53.31
2022-07-25T23:51:57.368Z,52.96
2022-07-25T23:54:26.129Z,53.26
2022-07-25T23:56:53.661Z,52.98
2022-07-25T23:59:21.232Z,53.19
